Time;durP1;ratioP1;P1;durP2;ratioP2;P2;SDS_P1;SDS_P2;PMS_P1;PMS_P2;Temp;Humidity;BMP_temperature;BMP_pressure;BME280_temperature;BME280_humidity;BME280_pressure;Samples;Min_cycle;Max_cycle;Signal;HPM_P1;HPM_P2
2022/08/22 00:01:02;;;;;;;3.60;2.60;;;;;;;18.29;52.74;98742.00;5095110;28;40575;-74
2022/08/22 00:03:40;;;;;;;2.90;2.60;;;;;;;18.28;52.58;98744.84;5111735;28;42700;-73
2022/08/22 00:06:15;;;;;;;2.53;2.33;;;;;;;18.26;52.83;98738.75;5110554;28;42335;-73
2022/08/22 00:08:58;;;;;;;2.93;2.60;;;;;;;18.23;54.01;98731.00;5112179;28;41288;-72
2022/08/22 00:11:37;;;;;;;3.20;2.67;;;;;;;18.21;54.57;98723.13;5110851;28;41714;-74
2022/08/22 00:14:13;;;;;;;3.60;3.13;;;;;;;18.18;55.18;98722.56;5111504;28;42578;-73
2022/08/22 00:16:50;;;;;;;3.67;2.93;;;;;;;18.19;55.07;98726.94;5112149;28;42310;-74
2022/08/22 00:19:25;;;;;;;3.13;2.60;;;;;;;18.17;54.43;98736.97;5112539;28;41215;-74
2022/08/22 00:22:00;;;;;;;3.40;3.10;;;;;;;18.14;54.32;98731.91;5095347;28;40743;-73
2022/08/22 00:24:34;;;;;;;2.97;2.70;;;;;;;18.12;54.10;98732.03;5112930;28;42772;-77
2022/08/22 00:27:10;;;;;;;3.23;2.97;;;;;;;18.09;54.49;98726.97;5108988;28;42284;-75
2022/08/22 00:29:42;;;;;;;2.90;2.47;;;;;;;18.07;54.71;98734.31;5112095;28;41982;-73
2022/08/22 00:32:16;;;;;;;3.37;2.80;;;;;;;18.05;54.83;98733.59;5109090;28;41719;-73
2022/08/22 00:34:50;;;;;;;3.93;3.30;;;;;;;18.03;54.96;98740.97;5113357;28;42706;-73
2022/08/22 00:37:26;;;;;;;3.20;2.90;;;;;;;18.00;55.04;98738.56;5111596;28;41721;-73
2022/08/22 00:40:02;;;;;;;3.23;2.87;;;;;;;17.98;54.93;98743.22;5110368;28;40000;-73
2022/08/22 00:42:52;;;;;;;3.37;2.50;;;;;;;17.94;55.64;98741.81;5108802;28;41638;-74
2022/08/22 00:45:56;;;;;;;3.23;2.57;;;;;;;17.92;55.11;98749.19;5109978;28;43708;-74
2022/08/22 00:49:03;;;;;;;2.77;2.50;;;;;;;17.87;55.47;98743.41;5097994;28;42578;-73
2022/08/22 00:52:12;;;;;;;3.73;2.63;;;;;;;17.85;55.56;98742.69;5033457;28;38732;-73
2022/08/22 00:55:02;;;;;;;2.63;2.40;;;;;;;17.81;55.13;98746.63;5079705;27;42588;-74
2022/08/22 00:57:57;;;;;;;2.43;2.23;;;;;;;17.76;54.88;98748.91;5094593;28;41593;-74
2022/08/22 01:00:29;;;;;;;2.67;2.47;;;;;;;17.75;54.98;98749.91;5109019;28;42165;-73
2022/08/22 01:03:38;;;;;;;3.53;2.60;;;;;;;17.72;55.21;98752.88;5094382;28;39140;-73
2022/08/22 01:06:22;;;;;;;3.20;2.90;;;;;;;17.69;55.34;98747.78;5033534;28;41329;-73
2022/08/22 01:09:01;;;;;;;2.57;2.37;;;;;;;17.67;55.68;98744.44;5104294;27;43525;-73
2022/08/22 01:12:12;;;;;;;2.77;2.53;;;;;;;17.65;55.87;98751.75;5094379;28;42124;-74
2022/08/22 01:14:47;;;;;;;4.37;2.80;;;;;;;17.60;55.53;98750.31;5112695;28;39676;-73
2022/08/22 01:17:49;;;;;;;2.80;2.60;;;;;;;17.59;55.54;98758.47;5094635;28;40676;-74
2022/08/22 01:20:46;;;;;;;2.50;2.30;;;;;;;17.57;55.32;98761.31;5111693;28;42443;-74
2022/08/22 01:23:42;;;;;;;3.00;2.80;;;;;;;17.53;56.05;98757.25;5110763;28;41256;-73
2022/08/22 01:26:55;;;;;;;3.27;2.70;;;;;;;17.52;56.07;98754.69;5067506;27;40870;-73
2022/08/22 01:30:01;;;;;;;3.03;2.80;;;;;;;17.49;57.28;98746.94;5111840;28;42712;-74
2022/08/22 01:33:16;;;;;;;4.43;2.90;;;;;;;17.47;57.02;98755.13;5107173;28;42688;-73
2022/08/22 01:36:10;;;;;;;3.17;2.70;;;;;;;17.45;57.43;98756.22;5016251;28;41317;-74
2022/08/22 01:38:57;;;;;;;3.20;2.90;;;;;;;17.43;57.39;98753.69;5047826;28;40944;-74
2022/08/22 01:42:14;;;;;;;4.53;3.27;;;;;;;17.42;57.34;98752.03;5089995;28;41603;-74
2022/08/22 01:45:03;;;;;;;2.87;2.60;;;;;;;17.40;57.24;98758.50;5110826;28;43634;-74
2022/08/22 01:47:38;;;;;;;3.67;3.07;;;;;;;17.37;56.93;98756.09;5093653;28;44019;-75
2022/08/22 01:50:17;;;;;;;4.57;2.73;;;;;;;17.33;57.30;98752.00;5109294;28;40745;-74
2022/08/22 01:52:49;;;;;;;2.90;2.50;;;;;;;17.32;57.51;98755.66;5093824;28;40401;-75
2022/08/22 01:55:29;;;;;;;3.20;2.90;;;;;;;17.29;57.56;98751.47;5110922;28;41569;-75
2022/08/22 01:57:59;;;;;;;2.90;2.70;;;;;;;17.28;57.43;98759.63;5108415;28;43005;-75
2022/08/22 02:00:47;;;;;;;3.33;2.80;;;;;;;17.19;57.95;98751.44;5107866;28;40936;-73
2022/08/22 02:03:25;;;;;;;2.90;2.60;;;;;;;17.23;57.78;98763.56;5110076;28;41722;-73
2022/08/22 02:06:02;;;;;;;3.53;2.83;;;;;;;17.19;57.75;98755.94;5110729;28;41455;-74
2022/08/22 02:08:41;;;;;;;3.20;2.90;;;;;;;17.18;57.77;98765.00;5108478;28;43192;-73
2022/08/22 02:11:11;;;;;;;3.77;2.50;;;;;;;17.04;57.48;98757.38;5108898;28;40692;-73
2022/08/22 02:13:54;;;;;;;3.73;3.10;;;;;;;17.10;57.60;98764.81;5110559;28;42404;-74
2022/08/22 02:16:32;;;;;;;3.00;2.67;;;;;;;17.06;57.87;98766.09;5108688;28;43096;-73
2022/08/22 02:19:11;;;;;;;2.73;2.53;;;;;;;17.03;58.13;98758.34;5092600;28;42316;-74
2022/08/22 02:21:46;;;;;;;2.97;2.50;;;;;;;16.98;58.03;98768.59;5110849;28;40366;-75
2022/08/22 02:24:27;;;;;;;2.87;2.57;;;;;;;16.98;58.15;98773.94;5114542;28;41478;-75
2022/08/22 02:27:07;;;;;;;3.17;2.70;;;;;;;16.95;58.38;98768.88;5097169;28;44205;-73
2022/08/22 02:29:42;;;;;;;3.57;3.03;;;;;;;16.92;58.27;98770.03;5114013;28;42212;-73
2022/08/22 02:32:19;;;;;;;3.40;2.43;;;;;;;16.87;58.28;98766.91;5111064;28;40925;-75
2022/08/22 02:34:58;;;;;;;2.93;2.57;;;;;;;16.84;58.00;98770.69;5115347;28;42643;-75
2022/08/22 02:37:35;;;;;;;2.57;2.37;;;;;;;16.81;58.22;98768.28;5112017;28;43819;-74
2022/08/22 02:40:13;;;;;;;3.10;2.80;;;;;;;16.79;58.36;98770.28;5112021;28;42404;-75
2022/08/22 02:42:48;;;;;;;3.20;2.80;;;;;;;16.67;58.40;98754.47;5096726;28;39118;-74
2022/08/22 02:45:26;;;;;;;2.47;2.27;;;;;;;16.74;58.44;98775.16;5113607;28;40690;-77
2022/08/22 02:48:03;;;;;;;2.73;2.50;;;;;;;16.72;58.15;98774.47;5096463;28;41686;-76
2022/08/22 02:50:38;;;;;;;2.60;2.40;;;;;;;16.70;58.19;98771.06;5096696;28;41268;-76
2022/08/22 02:53:14;;;;;;;2.83;2.63;;;;;;;16.68;58.18;98767.72;5113845;28;40011;-75
2022/08/22 02:55:58;;;;;;;2.93;2.30;;;;;;;16.65;58.53;98764.47;5114172;28;41709;-75
2022/08/22 02:58:36;;;;;;;5.17;3.20;;;;;;;16.61;58.21;98766.50;5113166;28;42693;-75
2022/08/22 03:01:23;;;;;;;3.10;2.50;;;;;;;16.59;58.81;98760.44;5110480;28;43538;-76
2022/08/22 03:04:12;;;;;;;2.73;2.47;;;;;;;16.57;58.27;98765.09;5114743;28;39681;-75
2022/08/22 03:06:44;;;;;;;2.53;2.33;;;;;;;16.54;58.55;98760.03;5113282;28;42890;-75
2022/08/22 03:09:25;;;;;;;2.50;2.30;;;;;;;16.52;58.42;98751.28;5113353;28;42568;-75
2022/08/22 03:12:08;;;;;;;5.40;2.80;;;;;;;16.49;58.70;98751.56;5112604;28;42284;-75
2022/08/22 03:14:44;;;;;;;3.20;1.97;;;;;;;16.46;59.02;98751.81;5113131;28;41860;-76
2022/08/22 03:17:18;;;;;;;2.80;2.60;;;;;;;16.45;58.85;98756.31;5111729;28;41755;-76
2022/08/22 03:19:59;;;;;;;2.73;2.10;;;;;;;16.33;58.71;98740.50;5096111;28;42586;-74
2022/08/22 03:22:36;;;;;;;2.30;2.13;;;;;;;16.37;58.97;98747.28;5113005;28;43222;-75
2022/08/22 03:25:12;;;;;;;2.10;1.97;;;;;;;16.39;58.93;98756.03;5110258;28;41463;-74
2022/08/22 03:27:45;;;;;;;2.20;2.00;;;;;;;16.36;59.00;98758.97;5110104;28;42432;-75
2022/08/22 03:30:22;;;;;;;2.83;2.47;;;;;;;16.34;58.82;98753.75;5111421;28;42747;-74
2022/08/22 03:32:54;;;;;;;2.37;2.17;;;;;;;16.31;59.04;98758.53;5112628;28;40652;-74
2022/08/22 03:35:33;;;;;;;2.77;2.50;;;;;;;16.30;59.63;98754.16;5110656;28;40006;-75
2022/08/22 03:38:14;;;;;;;2.63;2.43;;;;;;;16.28;59.61;98754.31;5111653;28;41819;-75
2022/08/22 03:40:56;;;;;;;2.93;2.40;;;;;;;16.26;59.88;98766.94;5111027;28;42794;-75
2022/08/22 03:43:59;;;;;;;2.90;2.70;;;;;;;16.26;59.96;98760.75;5111112;28;42260;-75
2022/08/22 03:46:59;;;;;;;2.30;2.10;;;;;;;16.24;60.19;98757.38;5109832;28;40797;-74
2022/08/22 03:50:03;;;;;;;2.83;2.50;;;;;;;16.27;60.44;98757.09;5078390;28;43683;-74
2022/08/22 03:53:08;;;;;;;3.13;2.80;;;;;;;16.27;60.72;98757.09;5090091;27;43683;-75
2022/08/22 03:56:00;;;;;;;6.13;3.33;;;;;;;16.27;61.12;98754.44;5112507;28;42711;-74
2022/08/22 03:59:07;;;;;;;3.20;2.90;;;;;;;16.29;61.24;98758.66;5111409;28;41034;-74
2022/08/22 04:01:56;;;;;;;4.30;3.50;;;;;;;16.30;61.39;98763.03;5109596;28;42683;-75
2022/08/22 04:05:05;;;;;;;3.53;3.20;;;;;;;16.32;61.09;98765.56;5112360;28;42700;-74
2022/08/22 04:08:04;;;;;;;4.33;3.40;;;;;;;16.30;61.49;98762.19;5107954;28;42776;-74
2022/08/22 04:10:43;;;;;;;2.77;2.57;;;;;;;16.25;61.08;98759.91;5113482;28;41872;-75
2022/08/22 04:13:51;;;;;;;3.00;2.63;;;;;;;16.29;60.91;98765.84;5112299;28;42119;-76
2022/08/22 04:17:00;;;;;;;2.57;2.37;;;;;;;16.29;61.11;98776.53;5089579;28;42957;-75
2022/08/22 04:20:02;;;;;;;3.03;2.40;;;;;;;16.26;61.47;98782.13;5111817;28;43215;-75
2022/08/22 04:22:58;;;;;;;3.30;2.90;;;;;;;16.21;61.32;98795.88;5112334;28;39780;-75
2022/08/22 04:25:33;;;;;;;3.37;3.10;;;;;;;16.15;61.31;98791.94;5111827;28;42148;-74
2022/08/22 04:28:10;;;;;;;3.17;2.83;;;;;;;16.11;61.33;98795.84;5111512;28;42727;-74
2022/08/22 04:30:44;;;;;;;2.57;2.37;;;;;;;16.06;60.88;98805.25;5110327;28;42884;-75
2022/08/22 04:33:22;;;;;;;3.27;2.67;;;;;;;16.01;61.39;98805.63;5111980;28;38727;-75
2022/08/22 04:35:59;;;;;;;3.17;2.90;;;;;;;15.98;61.00;98811.22;5110037;28;41778;-75
2022/08/22 04:38:33;;;;;;;2.83;2.50;;;;;;;15.96;60.94;98806.97;5111757;28;43956;-76
2022/08/22 04:41:09;;;;;;;2.90;2.60;;;;;;;15.89;60.89;98795.97;5110232;28;42024;-73
2022/08/22 04:43:41;;;;;;;3.37;2.73;;;;;;;15.96;61.13;98810.50;5111788;28;40957;-78
2022/08/22 04:46:16;;;;;;;3.60;3.30;;;;;;;15.99;61.50;98802.22;5109571;28;41655;-75
2022/08/22 04:48:54;;;;;;;2.80;2.50;;;;;;;16.03;61.37;98802.81;5110383;28;43738;-74
2022/08/22 04:51:29;;;;;;;2.60;2.40;;;;;;;16.02;61.42;98806.47;5109930;28;43213;-74
2022/08/22 04:54:24;;;;;;;4.40;2.90;;;;;;;16.13;61.43;98820.59;5112010;28;39916;-75
2022/08/22 04:57:06;;;;;;;2.63;2.43;;;;;;;16.20;61.40;98825.41;5104144;28;41753;-74
2022/08/22 04:59:35;;;;;;;4.10;2.73;;;;;;;16.21;61.00;98822.59;5111674;28;44025;-73
2022/08/22 05:02:10;;;;;;;4.63;3.23;;;;;;;16.10;60.97;98802.16;5094438;28;41175;-75
2022/08/22 05:04:44;;;;;;;3.00;2.80;;;;;;;16.37;60.79;98838.16;5112679;28;41671;-74
2022/08/22 05:07:16;;;;;;;3.83;3.20;;;;;;;16.45;61.09;98841.00;5108346;28;41898;-76
2022/08/22 05:09:49;;;;;;;3.83;3.50;;;;;;;16.54;60.93;98840.22;5112657;28;42982;-73
2022/08/22 05:12:25;;;;;;;3.47;3.13;;;;;;;16.64;60.98;98840.31;5109985;28;43224;-74
2022/08/22 05:14:59;;;;;;;3.97;3.20;;;;;;;16.67;60.92;98824.84;5109794;28;40121;-74
2022/08/22 05:17:30;;;;;;;3.47;3.13;;;;;;;16.87;60.95;98848.00;5109568;28;42568;-74
2022/08/22 05:20:06;;;;;;;4.77;3.60;;;;;;;16.98;61.07;98843.50;5112791;28;43902;-76
2022/08/22 05:22:40;;;;;;;3.07;2.77;;;;;;;16.80;60.49;98801.38;5094326;28;42549;-75
2022/08/22 05:25:12;;;;;;;4.13;3.00;;;;;;;17.20;60.20;98854.00;5108735;28;39637;-73
2022/08/22 05:27:47;;;;;;;3.03;2.73;;;;;;;17.22;60.24;98835.97;5113002;28;20712;-72
2022/08/22 05:30:20;;;;;;;2.87;2.63;;;;;;;17.50;60.03;98855.75;5109420;28;42821;-73
2022/08/22 05:32:52;;;;;;;3.03;2.73;;;;;;;17.69;59.69;98852.25;5109762;28;42059;-75
2022/08/22 05:35:32;;;;;;;3.40;3.10;;;;;;;17.95;59.76;98853.38;5093667;28;42019;-74
2022/08/22 05:38:02;;;;;;;3.43;3.00;;;;;;;18.08;59.58;98856.59;5093756;28;43973;-73
2022/08/22 05:40:33;;;;;;;3.03;2.73;;;;;;;18.21;59.46;98861.66;5111112;28;46025;-73
2022/08/22 05:43:01;;;;;;;3.40;3.10;;;;;;;18.33;58.94;98856.97;5112091;28;42061;-72
2022/08/22 05:45:29;;;;;;;3.30;3.00;;;;;;;18.28;58.97;98834.16;5112331;28;39964;-73
2022/08/22 05:48:04;;;;;;;4.50;3.43;;;;;;;18.34;58.84;98826.50;5110853;28;40910;-71
2022/08/22 05:50:38;;;;;;;3.90;3.03;;;;;;;18.72;58.72;98860.44;5110927;28;41427;-76
2022/08/22 05:53:09;;;;;;;3.70;3.23;;;;;;;18.79;58.75;98848.13;5108489;28;43294;-72
2022/08/22 05:55:47;;;;;;;4.60;3.50;;;;;;;19.00;58.34;98857.63;5109290;28;40596;-74
2022/08/22 05:58:30;;;;;;;4.30;3.53;;;;;;;19.10;58.45;98862.09;5109036;28;41794;-74
2022/08/22 06:01:07;;;;;;;3.93;3.50;;;;;;;19.20;57.84;98865.56;5109284;28;43041;-75
2022/08/22 06:03:40;;;;;;;4.93;3.93;;;;;;;19.27;57.88;98863.97;5110407;28;42357;-75
2022/08/22 06:06:15;;;;;;;4.40;3.97;;;;;;;19.29;57.96;98859.28;5110740;28;39242;-76
2022/08/22 06:08:49;;;;;;;4.53;3.83;;;;;;;19.44;57.50;98865.84;5093512;28;40731;-74
2022/08/22 06:11:24;;;;;;;3.83;3.53;;;;;;;19.58;57.32;98854.59;5107747;28;43514;-74
2022/08/22 06:13:58;;;;;;;5.03;3.90;;;;;;;19.89;57.26;98862.28;5086509;28;40986;-79
2022/08/22 06:16:35;;;;;;;4.03;3.60;;;;;;;20.05;56.85;98862.41;5104683;28;39956;-75
2022/08/22 06:19:04;;;;;;;3.40;3.10;;;;;;;20.10;57.15;98846.66;5109171;28;42571;-75
2022/08/22 06:21:37;;;;;;;3.70;3.40;;;;;;;20.34;56.98;98860.28;5109737;28;42892;-75
2022/08/22 06:24:09;;;;;;;5.33;3.67;;;;;;;20.49;56.62;98865.13;5105788;28;42891;-76
2022/08/22 06:26:41;;;;;;;4.47;3.77;;;;;;;20.60;56.85;98863.00;5109657;28;38971;-76
2022/08/22 06:29:14;;;;;;;4.10;3.70;;;;;;;20.76;56.52;98860.44;5093058;28;42616;-77
2022/08/22 06:31:47;;;;;;;4.10;3.60;;;;;;;20.97;56.42;98853.78;5105845;28;42504;-75
2022/08/22 06:34:21;;;;;;;3.87;3.50;;;;;;;21.13;56.49;98860.09;5109109;28;43188;-76
2022/08/22 06:36:53;;;;;;;4.07;3.60;;;;;;;21.27;56.47;98861.31;5109820;28;39726;-76
2022/08/22 06:39:23;;;;;;;4.73;3.97;;;;;;;21.42;56.21;98864.22;5110755;28;41537;-76
2022/08/22 06:41:55;;;;;;;4.50;4.10;;;;;;;21.54;56.46;98864.75;5109957;28;43417;-76
2022/08/22 06:44:31;;;;;;;3.97;3.67;;;;;;;21.69;56.22;98865.81;5109086;28;43086;-73
2022/08/22 06:47:02;;;;;;;4.50;3.70;;;;;;;21.80;55.66;98869.03;5092097;28;41105;-74
2022/08/22 06:49:33;;;;;;;4.07;3.37;;;;;;;21.94;55.78;98858.59;5109528;28;40646;-74
2022/08/22 06:52:07;;;;;;;3.67;3.37;;;;;;;22.08;55.49;98860.66;5107403;28;43540;-75
2022/08/22 06:54:37;;;;;;;5.00;4.23;;;;;;;22.11;55.28;98834.19;5110687;28;43053;-75
2022/08/22 06:57:10;;;;;;;5.03;3.70;;;;;;;22.33;55.15;98859.63;5109261;28;39147;-75
2022/08/22 06:59:39;;;;;;;4.37;3.97;;;;;;;22.48;54.48;98867.88;5109779;28;42127;-77
2022/08/22 07:02:16;;;;;;;5.23;4.17;;;;;;;22.75;54.20;98866.66;5110552;28;42728;-75
2022/08/22 07:04:44;;;;;;;5.93;4.10;;;;;;;23.25;52.96;98872.53;5093304;28;41736;-81
2022/08/22 07:07:18;;;;;;;3.90;3.37;;;;;;;23.37;53.11;98853.25;5110136;28;40110;-83
2022/08/22 07:09:54;;;;;;;8.77;3.63;;;;;;;23.53;52.60;98869.41;5114224;28;40626;-85
2022/08/22 07:12:28;;;;;;;5.07;4.00;;;;;;;23.58;52.55;98872.44;5110213;28;42629;-79
2022/08/22 07:15:01;;;;;;;3.97;3.60;;;;;;;23.68;52.84;98864.91;5110638;28;42318;-76
2022/08/22 07:17:32;;;;;;;5.37;3.87;;;;;;;23.89;52.52;98873.22;5113250;28;40350;-77
2022/08/22 07:20:12;;;;;;;3.90;3.50;;;;;;;24.07;52.16;98881.03;5114644;28;44356;-80
2022/08/22 07:22:50;;;;;;;7.73;4.50;;;;;;;24.25;51.28;98880.75;5110379;28;42556;-78
2022/08/22 07:25:19;;;;;;;3.63;3.33;;;;;;;24.50;51.05;98873.25;5111710;28;43316;-75
2022/08/22 07:28:00;;;;;;;6.10;3.80;;;;;;;24.85;50.46;98882.56;5112520;28;41115;-80
2022/08/22 07:30:40;;;;;;;4.30;3.60;;;;;;;25.10;49.86;98883.97;5109101;28;41745;-74
2022/08/22 07:33:20;;;;;;;5.07;3.40;;;;;;;25.32;49.71;98877.59;5110096;28;43482;-76
2022/08/22 07:35:56;;;;;;;3.97;3.17;;;;;;;25.56;48.88;98886.44;5110886;28;42980;-73
2022/08/22 07:38:35;;;;;;;4.70;3.20;;;;;;;25.74;48.08;98890.44;5112373;28;39461;-76
2022/08/22 07:41:14;;;;;;;3.90;3.13;;;;;;;25.91;46.88;98893.75;5110609;28;41509;-75
2022/08/22 07:43:46;;;;;;;4.07;3.43;;;;;;;26.09;46.82;98894.13;5112786;28;44161;-75
2022/08/22 07:46:27;;;;;;;4.67;3.47;;;;;;;26.25;47.71;98892.19;5110345;28;43302;-75
2022/08/22 07:48:59;;;;;;;3.60;3.30;;;;;;;26.47;46.61;98902.03;5112763;28;39909;-72
2022/08/22 07:51:35;;;;;;;3.40;3.10;;;;;;;26.92;45.60;98910.75;5112076;28;40788;-72
2022/08/22 07:54:09;;;;;;;3.37;3.07;;;;;;;27.64;43.64;98915.78;5111816;28;42668;-72
2022/08/22 07:56:42;;;;;;;8.00;2.50;;;;;;;28.16;40.65;98925.97;5108531;28;42190;-74
2022/08/22 07:59:15;;;;;;;3.73;2.90;;;;;;;28.76;39.79;98946.81;5112157;28;38892;-74
2022/08/22 08:01:46;;;;;;;2.80;2.60;;;;;;;29.62;38.52;98950.25;5109588;28;42745;-74
2022/08/22 08:04:19;;;;;;;3.17;2.57;;;;;;;30.70;37.44;98942.94;5112254;28;41897;-79
2022/08/22 08:06:51;;;;;;;4.80;2.67;;;;;;;31.73;34.05;98965.09;5112091;28;41321;-78
2022/08/22 08:09:22;;;;;;;4.13;2.00;;;;;;;31.99;34.05;98968.56;5112965;28;40785;-77
2022/08/22 08:11:53;;;;;;;2.40;2.20;;;;;;;31.73;32.90;98970.56;5094226;28;40669;-75
2022/08/22 08:14:23;;;;;;;2.33;2.10;;;;;;;31.61;33.27;98972.38;5112287;28;44154;-76
2022/08/22 08:17:00;;;;;;;3.23;2.03;;;;;;;31.38;32.76;98977.69;5113225;28;43570;-74
2022/08/22 08:19:30;;;;;;;3.17;1.93;;;;;;;31.45;31.97;98983.91;5111244;27;40394;-77
2022/08/22 08:21:58;;;;;;;3.17;2.07;;;;;;;31.57;31.80;98979.34;5111372;28;40904;-75
2022/08/22 08:24:31;;;;;;;2.27;2.07;;;;;;;31.65;31.84;98978.25;5111518;28;41711;-73
2022/08/22 08:29:54;;;;;;;4.37;2.13;;;;;;;32.30;30.52;98987.53;5111809;28;40918;-71
2022/08/22 08:32:23;;;;;;;3.63;2.23;;;;;;;32.50;30.88;98987.25;5111133;28;42403;-79
2022/08/22 08:34:52;;;;;;;3.90;2.30;;;;;;;32.59;30.26;98990.50;5110999;28;43800;-75
2022/08/22 08:37:24;;;;;;;3.50;2.30;;;;;;;32.45;29.60;98990.69;5111265;28;44340;-73
2022/08/22 08:39:56;;;;;;;2.80;1.93;;;;;;;32.54;29.86;98990.34;5109256;28;40176;-73
2022/08/22 08:45:57;;;;;;;3.23;1.93;;;;;;;34.39;27.09;98985.84;5094295;28;41506;-75
2022/08/22 08:48:57;;;;;;;4.67;2.53;;;;;;;34.77;26.31;98993.44;5089030;28;42542;-72
2022/08/22 08:51:46;;;;;;;2.30;2.07;;;;;;;35.68;25.95;98994.06;5110616;27;39441;-76
2022/08/22 08:54:33;;;;;;;3.05;2.03;;;;;;;37.11;24.61;99002.81;5111262;28;40633;-73
2022/08/22 08:57:11;;;;;;;3.33;1.73;;;;;;;38.13;22.67;99009.84;5110730;28;42657;-75
2022/08/22 08:59:52;;;;;;;2.53;1.98;;;;;;;37.83;22.80;99015.22;5111017;28;41100;-75
2022/08/22 09:02:41;;;;;;;3.15;2.17;;;;;;;37.34;23.05;99013.50;5107655;28;41090;-74
2022/08/22 09:05:54;;;;;;;2.45;2.10;;;;;;;36.83;23.99;98997.63;5109570;28;42005;-76
2022/08/22 09:08:59;;;;;;;2.45;2.25;;;;;;;36.62;23.58;99000.16;5093262;28;41694;-74
2022/08/22 09:11:48;;;;;;;3.45;2.20;;;;;;;37.25;23.36;99001.28;5108606;28;42318;-73
2022/08/22 09:14:32;;;;;;;2.85;2.13;;;;;;;38.39;22.50;98999.69;5111788;28;40856;-74
2022/08/22 09:17:26;;;;;;;2.50;2.30;;;;;;;39.19;21.47;99006.44;5108718;28;42515;-74
2022/08/22 09:20:12;;;;;;;2.33;2.13;;;;;;;38.76;21.39;99005.84;5111571;28;43307;-74
2022/08/22 09:23:22;;;;;;;2.30;2.10;;;;;;;38.18;22.01;98995.19;5110208;28;42331;-73
2022/08/22 09:25:55;;;;;;;3.03;2.30;;;;;;;37.93;22.36;99005.03;5093958;28;39327;-74
2022/08/22 09:28:31;;;;;;;4.30;2.20;;;;;;;38.48;21.42;98998.03;5109755;28;41743;-76
2022/08/22 09:31:34;;;;;;;3.22;1.80;;;;;;;38.86;20.48;99010.56;5108678;28;42735;-74
2022/08/22 09:34:11;;;;;;;2.00;1.80;;;;;;;38.29;21.34;99005.19;5093088;28;41085;-75
2022/08/22 09:36:57;;;;;;;2.73;1.90;;;;;;;38.01;20.90;99012.81;5110206;28;40640;-75
2022/08/22 09:39:32;;;;;;;2.50;1.83;;;;;;;37.60;21.65;98997.09;5110581;28;40581;-77
2022/08/22 09:42:08;;;;;;;3.90;2.07;;;;;;;37.09;21.97;98993.97;5107457;28;42926;-76
2022/08/22 09:44:42;;;;;;;2.50;1.97;;;;;;;36.87;22.61;98980.25;5111235;28;41222;-77
2022/08/22 09:47:22;;;;;;;4.50;2.20;;;;;;;36.61;22.68;98984.69;5107727;28;40312;-74
2022/08/22 09:49:59;;;;;;;3.57;2.20;;;;;;;36.33;22.02;98988.56;5110238;28;40793;-75
2022/08/22 09:52:47;;;;;;;2.20;1.40;;;;;;;36.44;22.17;98997.78;5106814;28;43769;-76
2022/08/22 09:55:36;;;;;;;2.67;1.80;;;;;;;36.49;22.34;98994.22;5110810;28;42348;-77
2022/08/22 09:58:16;;;;;;;2.93;2.10;;;;;;;36.09;22.81;98967.03;5092889;28;38961;-76
2022/08/22 10:00:53;;;;;;;3.20;1.93;;;;;;;35.59;22.84;98979.06;5110386;28;40658;-74
2022/08/22 10:03:32;;;;;;;3.37;2.00;;;;;;;35.14;23.50;98980.00;5109320;28;42871;-75
2022/08/22 10:06:03;;;;;;;2.23;1.83;;;;;;;34.76;23.88;98980.78;5108171;28;43263;-75
2022/08/22 10:08:44;;;;;;;2.37;2.03;;;;;;;34.49;23.88;98979.72;5110097;28;39809;-74
2022/08/22 10:11:25;;;;;;;3.57;2.10;;;;;;;34.22;23.94;98987.72;5109373;28;42437;-75
2022/08/22 10:13:58;;;;;;;3.13;2.00;;;;;;;33.97;24.60;98976.22;5110124;28;42742;-76
2022/08/22 10:16:41;;;;;;;2.90;2.00;;;;;;;33.82;24.78;98969.31;5092446;28;41161;-76
2022/08/22 10:19:17;;;;;;;2.13;1.93;;;;;;;33.73;24.80;98953.44;5092402;28;41179;-76
2022/08/22 10:22:05;;;;;;;2.43;1.93;;;;;;;33.71;24.49;98970.16;5107967;28;42788;-80
2022/08/22 10:24:43;;;;;;;2.33;1.73;;;;;;;33.86;24.90;98965.03;5110326;28;43160;-76
2022/08/22 10:27:17;;;;;;;1.83;1.60;;;;;;;34.03;24.75;98969.72;5107827;28;42376;-75
2022/08/22 10:30:02;;;;;;;3.23;2.07;;;;;;;34.31;24.74;98956.00;5111172;28;39862;-75
2022/08/22 10:32:36;;;;;;;2.20;1.63;;;;;;;35.45;23.60;98962.06;5092409;28;41716;-76
2022/08/22 10:35:18;;;;;;;3.00;1.87;;;;;;;36.62;22.13;98971.72;5110012;28;44738;-76
2022/08/22 10:37:54;;;;;;;1.73;1.40;;;;;;;37.67;22.02;98968.16;5091901;28;41409;-75
2022/08/22 10:40:28;;;;;;;3.05;1.92;;;;;;;38.57;20.50;98973.47;5109978;28;41283;-75
2022/08/22 10:43:02;;;;;;;2.83;1.60;;;;;;;39.14;19.52;98976.78;5108431;28;41698;-77
2022/08/22 10:45:33;;;;;;;3.22;1.80;;;;;;;39.72;19.80;98965.31;5111840;28;43490;-76
2022/08/22 10:48:36;;;;;;;1.65;1.55;;;;;;;39.77;19.67;98970.84;5112170;28;42600;-76
2022/08/22 10:51:24;;;;;;;2.03;1.55;;;;;;;39.77;19.29;98965.28;5099661;28;40369;-77
2022/08/22 10:54:04;;;;;;;2.95;1.73;;;;;;;39.76;19.57;98964.47;5110189;28;44218;-75
2022/08/22 10:56:38;;;;;;;2.63;1.67;;;;;;;38.53;19.97;98959.31;5111479;28;42711;-79
2022/08/22 10:59:25;;;;;;;2.07;1.83;;;;;;;37.37;20.82;98945.84;5113662;28;43552;-76
2022/08/22 11:02:07;;;;;;;2.20;1.73;;;;;;;37.05;21.74;98938.44;5112721;28;39647;-76
2022/08/22 11:04:55;;;;;;;2.93;1.90;;;;;;;38.32;20.07;98952.91;5114240;28;41905;-73
2022/08/22 11:07:46;;;;;;;2.60;1.60;;;;;;;39.58;20.35;98942.06;5109389;28;42552;-74
2022/08/22 11:10:25;;;;;;;3.38;1.50;;;;;;;40.41;18.52;98939.47;5111013;28;42997;-76
2022/08/22 11:13:11;;;;;;;2.63;1.77;;;;;;;41.32;17.87;98947.03;5111160;28;41881;-77
2022/08/22 11:15:58;;;;;;;3.15;1.65;;;;;;;41.07;17.75;98938.94;5111260;28;41704;-80
2022/08/22 11:18:38;;;;;;;3.72;2.08;;;;;;;39.99;18.79;98938.03;5112229;28;42751;-74
2022/08/22 11:21:10;;;;;;;5.05;1.98;;;;;;;39.05;19.32;98925.84;5112826;28;43711;-77
2022/08/22 11:23:47;;;;;;;1.60;1.50;;;;;;;38.22;19.93;98930.72;5112661;28;40935;-80
2022/08/22 11:26:30;;;;;;;3.23;1.90;;;;;;;37.36;20.81;98909.09;5096098;28;43372;-82
2022/08/22 11:29:44;;;;;;;1.93;1.70;;;;;;;36.75;21.84;98876.63;5113510;28;42025;-86
2022/08/22 11:32:17;;;;;;;2.60;1.47;;;;;;;36.76;21.42;98911.44;5095432;28;42515;-74
2022/08/22 11:34:55;;;;;;;1.93;1.83;;;;;;;36.04;21.19;98898.88;5095387;28;41209;-75
2022/08/22 11:37:40;;;;;;;2.27;1.50;;;;;;;35.42;21.97;98901.13;5109873;28;41701;-75
2022/08/22 11:40:23;;;;;;;2.77;1.70;;;;;;;34.97;23.17;98904.88;5110646;28;42799;-75
2022/08/22 11:43:01;;;;;;;2.23;1.40;;;;;;;34.71;23.13;98895.38;5109339;28;43310;-76
2022/08/22 11:45:36;;;;;;;1.63;1.40;;;;;;;35.80;22.89;98895.56;5095752;28;40075;-74
2022/08/22 11:48:10;;;;;;;1.70;1.60;;;;;;;35.93;21.71;98903.44;5095310;28;41816;-76
2022/08/22 11:50:44;;;;;;;3.10;1.87;;;;;;;35.51;21.65;98905.09;5111073;28;42652;-76
2022/08/22 11:53:21;;;;;;;2.10;1.60;;;;;;;35.11;22.58;98894.34;5094789;28;43204;-78
2022/08/22 11:55:59;;;;;;;3.03;1.80;;;;;;;34.74;22.75;98894.03;5108498;28;40983;-80
2022/08/22 11:58:40;;;;;;;4.20;1.90;;;;;;;34.43;23.31;98889.94;5074797;28;42403;-75
2022/08/22 12:01:14;;;;;;;1.47;1.33;;;;;;;34.13;22.74;98885.53;5075760;28;44353;-76
2022/08/22 12:04:09;;;;;;;2.37;1.20;;;;;;;36.17;21.14;98886.59;5110432;28;42483;-75
2022/08/22 12:07:01;;;;;;;1.57;1.40;;;;;;;39.42;17.47;98911.66;5111816;28;39831;-76
2022/08/22 12:09:37;;;;;;;1.40;1.30;;;;;;;41.23;15.78;98924.63;5112389;28;40536;-80
2022/08/22 12:12:20;;;;;;;2.08;1.20;;;;;;;42.69;15.39;98914.59;5108750;28;42971;-77
2022/08/22 12:14:57;;;;;;;1.83;1.38;;;;;;;42.99;15.45;98902.94;5112370;28;41800;-78
2022/08/22 12:18:00;;;;;;;1.45;1.27;;;;;;;42.62;15.61;98908.59;5110242;28;40143;-78
2022/08/22 12:20:46;;;;;;;1.70;1.30;;;;;;;44.88;14.29;98908.91;5112444;28;42662;-76
2022/08/22 12:23:32;;;;;;;1.40;1.30;;;;;;;46.89;13.28;98913.47;5111361;28;43532;-76
2022/08/22 12:26:12;;;;;;;3.33;1.42;;;;;;;48.30;12.33;98912.19;5094939;28;41170;-78
2022/08/22 12:28:56;;;;;;;2.72;1.30;;;;;;;48.39;11.87;98907.28;5091130;28;39923;-78
2022/08/22 12:31:34;;;;;;;2.40;1.25;;;;;;;46.03;12.48;98896.69;5077003;28;42337;-76
2022/08/22 12:34:11;;;;;;;2.50;1.30;;;;;;;45.01;13.64;98885.59;5110553;28;41577;-75
2022/08/22 12:37:03;;;;;;;1.60;1.50;;;;;;;46.10;13.50;98889.47;5108557;28;42023;-81
2022/08/22 12:39:59;;;;;;;2.70;1.15;;;;;;;47.70;12.31;98888.13;5111641;28;40573;-77
2022/08/22 12:42:48;;;;;;;2.65;1.30;;;;;;;48.72;11.55;98889.66;5107032;27;42611;-76